aviador You're here:

LFMN Decoded Metar

NICE in FRANCE
Report Time2018-01-19 05:00:00
UTC Time2018-01-19 05:20:43
Flight Rules vfr VFR
Wind330° at 07 kt
W.Decomp.*RWY 04: 2.3 kt HW 6.6 kt LCW
W.Rank330° ranks 1
Current wind is below 330° avg. (7.6)
Visibility9999 m
Phenomena:N/A
Clouds:N/A
Expected CloudBase > 2,000 ft AGL from Temp-Dew spread
CeilingNone
Temp06°C (ISA -9)
Dew Point01°C (71% RH)
AAT1.7°C
QNH1009 hPa
Density Alt-817 ft
Elevation33 ft
Report Wrong Elevation
Raw Report
LFMN 190500Z 33007KT CAVOK 06/01 Q1009 NOSIG=

Extra information for LFMN:More info

Metar Taf Metar & Taf Last 4 Metars F.Rules Stats Wind Profile Meteogram Temp Stats Airport Information Weather charts Add Link Nearby VenuesMetar ALERT Operation Metar Decoded Social comments